createdAt,value
2022-10-29T00:00:53.073Z,14.30
2022-10-29T00:03:21.849Z,14.40
2022-10-29T00:05:59.327Z,14.40
2022-10-29T00:08:28.728Z,14.50
2022-10-29T00:10:57.302Z,14.50
2022-10-29T00:13:25.593Z,14.50
2022-10-29T00:15:54.088Z,14.60
2022-10-29T00:18:22.334Z,14.60
2022-10-29T00:20:50.698Z,14.60
2022-10-29T00:23:20.288Z,14.60
2022-10-29T00:25:48.449Z,14.60
2022-10-29T00:28:16.749Z,14.70
2022-10-29T00:30:44.872Z,14.70
2022-10-29T00:33:13.075Z,14.70
2022-10-29T00:35:41.231Z,14.70
2022-10-29T00:38:09.384Z,14.70
2022-10-29T00:40:39.471Z,14.70
2022-10-29T00:43:15.005Z,14.80
2022-10-29T00:45:47.656Z,14.80
2022-10-29T00:48:15.924Z,14.80
2022-10-29T00:50:45.058Z,14.80
2022-10-29T00:53:13.497Z,14.80
2022-10-29T00:55:43.319Z,14.80
2022-10-29T00:58:12.788Z,14.80
2022-10-29T01:00:40.934Z,14.80
2022-10-29T01:03:09.210Z,14.80
2022-10-29T01:05:37.893Z,14.70
2022-10-29T01:08:06.739Z,14.70
2022-10-29T01:10:49.196Z,14.70
2022-10-29T01:13:32.305Z,14.70
2022-10-29T01:16:09.123Z,14.60
2022-10-29T01:18:42.184Z,14.60
2022-10-29T01:21:40.104Z,14.60
2022-10-29T01:24:59.046Z,14.60
2022-10-29T01:27:49.435Z,14.60
2022-10-29T01:30:53.753Z,14.50
2022-10-29T01:33:30.034Z,14.50
2022-10-29T01:36:03.760Z,14.40
2022-10-29T01:38:37.839Z,14.40
2022-10-29T01:41:13.280Z,14.30
2022-10-29T01:43:48.922Z,14.30
2022-10-29T01:46:21.598Z,14.30
2022-10-29T01:48:55.952Z,14.30
2022-10-29T01:51:27.223Z,14.20
2022-10-29T01:53:56.765Z,14.20
2022-10-29T01:56:25.076Z,14.20
2022-10-29T01:58:56.172Z,14.20
2022-10-29T02:01:35.414Z,14.20
2022-10-29T02:04:18.728Z,14.20
2022-10-29T02:07:00.543Z,14.20
2022-10-29T02:09:34.724Z,14.20
2022-10-29T02:12:09.875Z,14.20
2022-10-29T02:14:44.346Z,14.20
2022-10-29T02:17:12.522Z,14.20
2022-10-29T02:19:42.108Z,14.20
2022-10-29T02:22:10.274Z,14.20
2022-10-29T02:24:38.380Z,14.20
2022-10-29T02:27:07.302Z,14.10
2022-10-29T02:29:35.516Z,14.10
2022-10-29T02:32:06.687Z,14.10
2022-10-29T02:34:34.844Z,14.00
2022-10-29T02:37:04.430Z,14.00
2022-10-29T02:39:32.884Z,13.90
2022-10-29T02:42:01.105Z,13.90
2022-10-29T02:44:29.244Z,13.90
2022-10-29T02:46:57.462Z,13.90
2022-10-29T02:49:25.626Z,13.80
2022-10-29T02:51:53.829Z,13.80
2022-10-29T02:54:23.321Z,13.80
2022-10-29T02:56:51.822Z,13.80
2022-10-29T02:59:20.060Z,13.80
2022-10-29T03:01:48.418Z,13.70
2022-10-29T03:04:16.665Z,13.70
2022-10-29T03:06:44.839Z,13.70
2022-10-29T03:09:13.053Z,13.70
2022-10-29T03:11:42.586Z,13.60
2022-10-29T03:14:10.795Z,13.60
2022-10-29T03:16:38.950Z,13.60
2022-10-29T03:19:07.150Z,13.60
2022-10-29T03:21:35.348Z,13.60
2022-10-29T03:24:03.514Z,13.60
2022-10-29T03:26:31.721Z,13.60
2022-10-29T03:29:01.470Z,13.60
2022-10-29T03:31:29.660Z,13.60
2022-10-29T03:33:57.852Z,13.60
2022-10-29T03:36:26.097Z,13.50
2022-10-29T03:38:54.405Z,13.50
2022-10-29T03:41:22.613Z,13.50
2022-10-29T03:43:51.050Z,13.50
2022-10-29T03:46:20.683Z,13.50
2022-10-29T03:48:50.981Z,13.50
2022-10-29T03:51:19.236Z,13.50
2022-10-29T03:53:47.387Z,13.50
2022-10-29T03:56:15.608Z,13.50
2022-10-29T03:58:43.780Z,13.50
2022-10-29T04:01:12.409Z,13.40
2022-10-29T04:03:44.079Z,13.40
2022-10-29T04:06:13.908Z,13.40
2022-10-29T04:08:42.795Z,13.40
2022-10-29T04:11:12.835Z,13.40
2022-10-29T04:13:41.250Z,13.40
2022-10-29T04:16:10.598Z,13.40
2022-10-29T04:18:38.774Z,13.40
2022-10-29T04:29:33.352Z,13.40
2022-10-29T04:32:01.560Z,13.40
2022-10-29T04:34:29.760Z,13.40
2022-10-29T04:36:59.343Z,13.40
2022-10-29T04:39:27.553Z,13.40
2022-10-29T04:41:55.728Z,13.30
2022-10-29T04:44:23.854Z,13.30
2022-10-29T04:46:52.023Z,13.30
2022-10-29T04:49:20.307Z,13.30
2022-10-29T04:51:48.606Z,13.20
2022-10-29T04:54:18.203Z,13.20
2022-10-29T04:56:46.328Z,13.20
2022-10-29T04:59:14.632Z,13.10
2022-10-29T05:01:42.889Z,13.10
2022-10-29T05:04:11.212Z,13.00
2022-10-29T05:06:39.404Z,13.00
2022-10-29T05:09:07.580Z,12.90
2022-10-29T05:11:37.218Z,12.90
2022-10-29T05:14:05.475Z,12.90
2022-10-29T05:16:33.998Z,12.90
2022-10-29T05:19:02.835Z,12.90
2022-10-29T05:21:31.188Z,12.90
2022-10-29T05:23:59.598Z,12.90
2022-10-29T05:26:27.817Z,12.90
2022-10-29T05:28:57.322Z,13.00
2022-10-29T05:31:25.698Z,13.00
2022-10-29T05:33:55.653Z,13.00
2022-10-29T05:36:24.474Z,13.00
2022-10-29T05:38:52.703Z,13.00
2022-10-29T05:41:20.960Z,13.00
2022-10-29T05:43:50.407Z,13.00
2022-10-29T05:46:20.025Z,13.00
2022-10-29T05:48:48.225Z,13.00
2022-10-29T05:51:16.400Z,13.00
2022-10-29T05:53:44.686Z,13.00
2022-10-29T05:56:12.826Z,13.00
2022-10-29T05:58:40.968Z,13.10
2022-10-29T06:01:10.332Z,13.10
2022-10-29T06:03:40.533Z,13.10
2022-10-29T06:06:09.248Z,13.10
2022-10-29T06:08:37.386Z,13.10
2022-10-29T06:11:06.031Z,13.20
2022-10-29T06:13:34.524Z,13.20
2022-10-29T06:16:02.923Z,13.20
2022-10-29T06:18:31.223Z,13.20
2022-10-29T06:21:01.557Z,13.10
2022-10-29T06:23:30.268Z,13.10
2022-10-29T06:26:01.342Z,13.10
2022-10-29T06:28:34.564Z,13.00
2022-10-29T06:31:02.989Z,13.10
2022-10-29T06:33:31.198Z,13.10
2022-10-29T06:36:01.825Z,13.10
2022-10-29T06:38:29.924Z,13.20
2022-10-29T06:40:58.255Z,13.30
2022-10-29T06:43:26.526Z,13.30
2022-10-29T06:45:54.752Z,13.30
2022-10-29T06:48:23.114Z,13.40
2022-10-29T06:50:53.670Z,13.40
2022-10-29T06:53:23.262Z,13.50
2022-10-29T06:55:51.479Z,13.50
2022-10-29T06:58:21.625Z,13.60
2022-10-29T07:00:50.378Z,13.60
2022-10-29T07:03:20.582Z,13.70
2022-10-29T07:05:48.970Z,13.70
2022-10-29T07:08:17.191Z,13.90
2022-10-29T07:10:46.573Z,14.00
2022-10-29T07:13:14.552Z,14.10
2022-10-29T07:15:42.719Z,14.20
2022-10-29T07:18:12.269Z,14.30
2022-10-29T07:20:42.628Z,14.30
2022-10-29T07:23:11.168Z,14.40
2022-10-29T07:25:40.986Z,14.40
2022-10-29T07:28:13.974Z,14.50
2022-10-29T07:30:42.288Z,14.40
2022-10-29T07:33:10.481Z,14.50
2022-10-29T07:35:39.192Z,14.60
2022-10-29T07:38:10.899Z,14.60
2022-10-29T07:40:40.860Z,14.70
2022-10-29T07:43:10.844Z,14.70
2022-10-29T07:45:39.098Z,14.90
2022-10-29T07:48:08.801Z,14.90
2022-10-29T07:50:38.341Z,15.00
2022-10-29T07:53:07.986Z,15.10
2022-10-29T07:55:36.716Z,15.30
2022-10-29T07:58:06.392Z,15.50
2022-10-29T08:00:37.058Z,15.60
2022-10-29T08:03:06.205Z,15.70
2022-10-29T08:05:34.647Z,15.80
2022-10-29T08:08:03.019Z,15.90
2022-10-29T08:10:31.786Z,16.00
2022-10-29T08:13:02.397Z,16.10
2022-10-29T08:15:32.422Z,16.30
2022-10-29T08:18:02.199Z,16.50
2022-10-29T08:20:31.184Z,16.70
2022-10-29T08:23:04.671Z,17.00
2022-10-29T08:25:32.797Z,17.20
2022-10-29T08:28:02.437Z,17.40
2022-10-29T08:30:31.039Z,17.50
2022-10-29T08:33:02.450Z,17.60
2022-10-29T08:35:31.076Z,17.70
2022-10-29T08:37:59.455Z,17.70
2022-10-29T08:40:31.214Z,17.60
2022-10-29T08:43:34.995Z,17.60
2022-10-29T08:46:03.288Z,17.50
2022-10-29T08:48:46.562Z,17.40
2022-10-29T08:51:21.110Z,17.40
2022-10-29T08:54:10.451Z,17.40
2022-10-29T08:56:44.420Z,17.50
2022-10-29T08:59:16.275Z,17.60
2022-10-29T09:01:44.772Z,17.90
2022-10-29T09:04:24.687Z,18.20
2022-10-29T09:07:38.041Z,18.90
2022-10-29T09:10:12.497Z,19.60
2022-10-29T09:13:01.334Z,20.00
2022-10-29T09:15:42.268Z,20.40
2022-10-29T09:18:35.298Z,20.60
2022-10-29T09:21:13.234Z,20.80
2022-10-29T09:23:56.544Z,20.90
2022-10-29T09:26:31.219Z,20.90
2022-10-29T09:29:15.229Z,20.90
2022-10-29T09:31:46.770Z,20.80
2022-10-29T09:34:20.480Z,20.60
2022-10-29T09:36:50.212Z,20.50
2022-10-29T09:39:33.002Z,20.40
2022-10-29T09:42:03.566Z,20.30
2022-10-29T09:44:39.415Z,20.30
2022-10-29T09:47:20.338Z,20.30
2022-10-29T09:50:05.197Z,20.40
2022-10-29T09:52:42.056Z,20.40
2022-10-29T09:55:19.915Z,20.40
2022-10-29T09:57:49.775Z,20.40
2022-10-29T10:00:22.406Z,20.40
2022-10-29T10:02:56.645Z,20.40
2022-10-29T10:05:28.628Z,20.40
2022-10-29T10:08:09.845Z,20.50
2022-10-29T10:10:50.018Z,20.60
2022-10-29T10:13:19.732Z,20.80
2022-10-29T10:15:53.387Z,21.00
2022-10-29T10:18:24.076Z,21.40
2022-10-29T10:21:05.687Z,22.10
2022-10-29T10:23:44.783Z,22.70
2022-10-29T10:26:31.104Z,23.10
2022-10-29T10:29:14.161Z,23.30
2022-10-29T10:31:43.430Z,23.50
2022-10-29T10:34:18.532Z,23.50
2022-10-29T10:36:51.548Z,23.60
2022-10-29T10:39:29.215Z,23.60
2022-10-29T10:41:59.508Z,23.70
2022-10-29T10:44:28.915Z,23.70
2022-10-29T10:47:00.445Z,23.80
2022-10-29T10:49:34.833Z,23.90
2022-10-29T10:52:14.979Z,23.90
2022-10-29T10:54:47.711Z,23.90
2022-10-29T10:57:24.445Z,23.70
2022-10-29T11:00:02.647Z,23.50
2022-10-29T11:02:46.293Z,23.30
2022-10-29T11:05:18.917Z,23.10
2022-10-29T11:07:53.424Z,22.80
2022-10-29T11:10:28.819Z,22.70
2022-10-29T11:13:01.011Z,22.60
2022-10-29T11:15:38.788Z,22.50
2022-10-29T11:20:49.433Z,22.40
2022-10-29T11:23:29.001Z,22.30
2022-10-29T11:26:08.029Z,22.20
2022-10-29T11:28:41.711Z,22.10
2022-10-29T11:31:19.047Z,22.10
2022-10-29T11:33:54.270Z,22.10
2022-10-29T11:36:25.118Z,22.20
2022-10-29T11:38:59.077Z,22.40
2022-10-29T11:41:35.841Z,22.50
2022-10-29T11:44:04.109Z,22.60
2022-10-29T11:46:42.869Z,22.60
2022-10-29T11:49:26.870Z,22.50
2022-10-29T11:52:04.724Z,22.40
2022-10-29T11:54:45.675Z,22.40
2022-10-29T11:57:21.353Z,22.40
2022-10-29T12:00:06.794Z,22.60
2022-10-29T12:02:53.001Z,22.70
2022-10-29T12:05:27.781Z,22.70
2022-10-29T12:08:10.888Z,22.60
2022-10-29T12:10:50.392Z,22.40
2022-10-29T12:13:38.824Z,22.40
2022-10-29T12:16:17.154Z,22.20
2022-10-29T12:18:52.065Z,22.30
2022-10-29T12:21:30.492Z,22.40
2022-10-29T12:24:11.955Z,22.50
2022-10-29T12:26:45.735Z,22.50
2022-10-29T12:29:26.444Z,22.50
2022-10-29T12:32:02.678Z,22.50
2022-10-29T12:34:35.047Z,22.40
2022-10-29T12:37:10.238Z,22.50
2022-10-29T12:39:43.253Z,22.80
2022-10-29T12:42:17.718Z,23.00
2022-10-29T12:45:01.741Z,23.20
2022-10-29T12:47:36.793Z,23.20
2022-10-29T12:50:20.053Z,23.20
2022-10-29T12:52:54.494Z,23.20
2022-10-29T12:55:23.259Z,23.20
2022-10-29T12:57:51.556Z,23.20
2022-10-29T13:00:51.253Z,23.40
2022-10-29T13:03:56.642Z,23.50
2022-10-29T13:06:47.716Z,23.50
2022-10-29T13:09:20.744Z,23.40
2022-10-29T13:11:51.188Z,23.40
2022-10-29T13:14:25.036Z,23.30
2022-10-29T13:16:55.468Z,23.10
2022-10-29T13:19:38.962Z,22.90
2022-10-29T13:22:48.883Z,22.70
2022-10-29T13:25:50.544Z,22.50
2022-10-29T13:28:53.306Z,22.30
2022-10-29T13:31:49.697Z,22.10
2022-10-29T13:34:59.538Z,22.00
2022-10-29T13:38:15.998Z,21.90
2022-10-29T13:41:10.456Z,21.70
2022-10-29T13:43:38.863Z,21.60
2022-10-29T13:46:30.677Z,21.50
2022-10-29T13:49:02.069Z,21.60
2022-10-29T13:51:38.173Z,21.60
2022-10-29T13:54:09.750Z,21.60
2022-10-29T13:56:46.190Z,21.60
2022-10-29T13:59:22.322Z,21.70
2022-10-29T14:02:00.691Z,21.60
2022-10-29T14:04:35.355Z,21.50
2022-10-29T14:07:12.035Z,21.40
2022-10-29T14:09:47.209Z,21.30
2022-10-29T14:12:22.293Z,21.20
2022-10-29T14:14:58.211Z,21.20
2022-10-29T14:17:26.430Z,21.20
2022-10-29T14:19:54.764Z,21.30
2022-10-29T14:22:38.262Z,21.30
2022-10-29T14:25:30.140Z,21.40
2022-10-29T14:28:12.130Z,21.40
2022-10-29T14:30:40.318Z,21.40
2022-10-29T14:33:27.411Z,21.30
2022-10-29T14:36:02.265Z,21.30
2022-10-29T14:38:39.752Z,21.20
2022-10-29T14:41:08.080Z,21.10
2022-10-29T14:43:36.708Z,21.10
2022-10-29T14:46:15.318Z,20.90
2022-10-29T14:48:55.966Z,20.80
2022-10-29T14:51:24.609Z,20.70
2022-10-29T14:54:01.066Z,20.70
2022-10-29T14:56:34.915Z,20.60
2022-10-29T14:59:10.867Z,20.60
2022-10-29T15:01:57.109Z,20.60
2022-10-29T15:04:30.638Z,20.60
2022-10-29T15:07:16.617Z,20.60
2022-10-29T15:09:47.241Z,20.60
2022-10-29T15:12:21.288Z,20.50
2022-10-29T15:14:50.877Z,20.50
2022-10-29T15:17:23.947Z,20.50
2022-10-29T15:19:55.544Z,20.50
2022-10-29T15:22:29.426Z,20.40
2022-10-29T15:25:00.417Z,20.20
2022-10-29T15:27:28.764Z,20.10
2022-10-29T15:29:57.276Z,20.00
2022-10-29T15:32:27.481Z,19.80
2022-10-29T15:35:00.411Z,19.70
2022-10-29T15:37:45.188Z,19.60
2022-10-29T15:40:17.112Z,19.50
2022-10-29T15:42:46.256Z,19.30
2022-10-29T15:45:25.991Z,19.20
2022-10-29T15:47:59.250Z,19.00
2022-10-29T15:50:35.904Z,18.90
2022-10-29T15:53:06.009Z,18.70
2022-10-29T15:55:38.466Z,18.60
2022-10-29T15:58:10.495Z,18.50
2022-10-29T16:00:38.674Z,18.40
2022-10-29T16:03:15.190Z,18.20
2022-10-29T16:05:48.186Z,18.10
2022-10-29T16:08:25.880Z,18.00
2022-10-29T16:10:55.927Z,17.90
2022-10-29T16:13:25.323Z,17.80
2022-10-29T16:15:53.593Z,17.70
2022-10-29T16:18:22.010Z,17.70
2022-10-29T16:20:51.086Z,17.60
2022-10-29T16:23:19.232Z,17.50
2022-10-29T16:25:47.403Z,17.40
2022-10-29T16:28:17.150Z,17.40
2022-10-29T16:30:47.675Z,17.30
2022-10-29T16:33:16.422Z,17.20
2022-10-29T16:35:44.639Z,17.20
2022-10-29T16:38:13.025Z,17.10
2022-10-29T16:40:42.784Z,17.00
2022-10-29T16:43:11.259Z,16.90
2022-10-29T16:45:40.932Z,16.80
2022-10-29T16:48:09.252Z,16.80
2022-10-29T16:50:37.684Z,16.70
2022-10-29T16:53:07.940Z,16.70
2022-10-29T16:55:38.105Z,16.60
2022-10-29T16:58:08.159Z,16.60
2022-10-29T17:00:36.852Z,16.60
2022-10-29T17:03:11.399Z,16.50
2022-10-29T17:05:42.387Z,16.50
2022-10-29T17:08:10.859Z,16.50
2022-10-29T17:10:39.488Z,16.50
2022-10-29T17:13:09.137Z,16.50
2022-10-29T17:15:40.893Z,16.40
2022-10-29T17:18:10.633Z,16.30
2022-10-29T17:20:38.919Z,16.30
2022-10-29T17:23:07.186Z,16.20
2022-10-29T17:25:35.549Z,16.20
2022-10-29T17:28:04.307Z,16.20
2022-10-29T17:30:32.567Z,16.30
2022-10-29T17:33:01.020Z,16.30
2022-10-29T17:35:30.856Z,16.40
2022-10-29T17:37:59.090Z,16.50
2022-10-29T17:40:27.406Z,16.50
2022-10-29T17:42:55.947Z,16.60
2022-10-29T17:45:24.698Z,16.60
2022-10-29T17:47:56.532Z,16.70
2022-10-29T17:50:25.964Z,16.70
2022-10-29T17:52:57.985Z,16.80
2022-10-29T17:55:26.292Z,16.80
2022-10-29T17:57:54.658Z,16.80
2022-10-29T18:00:23.308Z,16.80
2022-10-29T18:02:52.098Z,16.80
2022-10-29T18:05:20.801Z,16.90
2022-10-29T18:07:49.191Z,16.90
2022-10-29T18:10:18.992Z,16.90
2022-10-29T18:12:47.167Z,16.90
2022-10-29T18:15:15.527Z,17.00
2022-10-29T18:17:43.754Z,17.00
2022-10-29T18:20:12.661Z,17.10
2022-10-29T18:22:40.879Z,17.10
2022-10-29T18:25:10.322Z,17.10
2022-10-29T18:27:40.795Z,17.20
2022-10-29T18:30:10.378Z,17.30
2022-10-29T18:32:38.644Z,17.30
2022-10-29T18:35:07.905Z,17.30
2022-10-29T18:37:36.121Z,17.30
2022-10-29T18:40:04.522Z,17.30
2022-10-29T18:42:32.824Z,17.30
2022-10-29T18:45:02.490Z,17.30
2022-10-29T18:47:30.776Z,17.30
2022-10-29T18:49:58.914Z,17.30
2022-10-29T18:52:27.258Z,17.30
2022-10-29T18:54:55.525Z,17.30
2022-10-29T18:57:23.882Z,17.20
2022-10-29T18:59:52.218Z,17.20
2022-10-29T19:02:21.830Z,17.20
2022-10-29T19:04:50.410Z,17.20
2022-10-29T19:07:18.808Z,17.20
2022-10-29T19:09:47.083Z,17.20
2022-10-29T19:12:15.385Z,17.20
2022-10-29T19:14:43.654Z,17.20
2022-10-29T19:17:11.885Z,17.20
2022-10-29T19:19:41.491Z,17.20
2022-10-29T19:22:09.747Z,17.30
2022-10-29T19:24:38.010Z,17.30
2022-10-29T19:27:06.203Z,17.30
2022-10-29T19:29:34.427Z,17.30
2022-10-29T19:32:02.599Z,17.30
2022-10-29T19:34:30.811Z,17.20
2022-10-29T19:37:00.507Z,17.20
2022-10-29T19:39:28.729Z,17.20
2022-10-29T19:41:57.039Z,17.10
2022-10-29T19:44:25.302Z,17.20
2022-10-29T19:46:53.493Z,17.10
2022-10-29T19:49:22.621Z,17.10
2022-10-29T19:51:51.356Z,17.00
2022-10-29T19:54:21.077Z,17.00
2022-10-29T19:56:49.373Z,17.00
2022-10-29T19:59:17.580Z,17.00
2022-10-29T20:01:48.373Z,16.90
2022-10-29T20:04:16.905Z,16.90
2022-10-29T20:06:45.135Z,17.00
2022-10-29T20:09:13.527Z,17.00
2022-10-29T20:11:43.979Z,16.90
2022-10-29T20:14:12.274Z,16.90
2022-10-29T20:16:41.124Z,16.90
2022-10-29T20:19:09.423Z,16.80
2022-10-29T20:21:37.619Z,16.80
2022-10-29T20:24:06.131Z,16.80
2022-10-29T20:26:34.415Z,16.80
2022-10-29T20:29:04.042Z,16.80
2022-10-29T20:31:38.527Z,16.80
2022-10-29T20:34:10.744Z,16.80
2022-10-29T20:36:39.180Z,16.80
2022-10-29T20:39:08.410Z,16.80
2022-10-29T20:41:37.450Z,16.80
2022-10-29T20:44:07.213Z,16.70
2022-10-29T20:46:40.776Z,16.70
2022-10-29T20:49:11.733Z,16.70
2022-10-29T20:51:40.002Z,16.60
2022-10-29T20:54:08.487Z,16.50
2022-10-29T20:56:36.667Z,16.50
2022-10-29T20:59:06.579Z,16.40
2022-10-29T21:01:35.011Z,16.30
2022-10-29T21:04:03.450Z,16.20
2022-10-29T21:06:31.780Z,16.20
2022-10-29T21:09:00.202Z,16.20
2022-10-29T21:11:28.574Z,16.20
2022-10-29T21:13:56.892Z,16.30
2022-10-29T21:16:28.529Z,16.30
2022-10-29T21:18:58.496Z,16.10
2022-10-29T21:21:27.568Z,16.30
2022-10-29T21:23:56.085Z,16.40
2022-10-29T21:26:26.304Z,16.30
2022-10-29T21:28:55.599Z,16.30
2022-10-29T21:31:24.722Z,16.30
2022-10-29T21:33:55.073Z,16.30
2022-10-29T21:36:24.350Z,16.20
2022-10-29T21:38:52.620Z,16.10
2022-10-29T21:41:20.854Z,16.00
2022-10-29T21:43:48.976Z,15.90
2022-10-29T21:46:17.149Z,15.80
2022-10-29T21:48:45.387Z,15.70
2022-10-29T21:51:17.235Z,15.60
2022-10-29T21:53:45.484Z,15.60
2022-10-29T21:56:15.392Z,15.50
2022-10-29T21:58:44.405Z,15.50
2022-10-29T22:01:15.034Z,15.40
2022-10-29T22:03:44.873Z,15.40
2022-10-29T22:06:16.141Z,15.40
2022-10-29T22:08:45.139Z,15.50
2022-10-29T22:11:14.246Z,15.60
2022-10-29T22:13:42.485Z,15.60
2022-10-29T22:16:11.548Z,15.70
2022-10-29T22:18:40.313Z,15.80
2022-10-29T22:21:11.810Z,15.80
2022-10-29T22:23:45.412Z,15.80
2022-10-29T22:26:14.354Z,15.80
2022-10-29T22:28:42.826Z,15.90
2022-10-29T22:31:11.583Z,15.90
2022-10-29T22:33:40.048Z,15.90
2022-10-29T22:36:10.272Z,16.00
2022-10-29T22:38:39.065Z,16.00
2022-10-29T22:41:11.289Z,15.90
2022-10-29T22:43:39.767Z,15.90
2022-10-29T22:46:09.969Z,15.70
2022-10-29T22:48:38.423Z,15.60
2022-10-29T22:51:08.374Z,15.40
2022-10-29T22:53:36.911Z,15.30
2022-10-29T22:56:06.207Z,15.10
2022-10-29T22:58:35.834Z,15.00
2022-10-29T23:01:06.648Z,14.90
2022-10-29T23:03:35.805Z,14.80
2022-10-29T23:06:05.735Z,14.70
2022-10-29T23:08:34.349Z,14.60
2022-10-29T23:11:06.104Z,14.80
2022-10-29T23:13:36.287Z,14.50
2022-10-29T23:16:04.654Z,14.50
2022-10-29T23:18:32.889Z,14.40
2022-10-29T23:21:02.348Z,14.30
2022-10-29T23:23:31.599Z,14.20
2022-10-29T23:26:01.862Z,14.10
2022-10-29T23:28:31.413Z,14.10
2022-10-29T23:31:02.549Z,14.00
2022-10-29T23:33:31.879Z,13.90
2022-10-29T23:36:03.338Z,13.80
2022-10-29T23:38:31.746Z,13.70
2022-10-29T23:41:00.409Z,13.70
2022-10-29T23:43:28.677Z,13.60
2022-10-29T23:45:56.871Z,13.60
2022-10-29T23:48:27.120Z,13.50
2022-10-29T23:50:56.433Z,13.50
2022-10-29T23:53:24.697Z,13.40
2022-10-29T23:55:53.163Z,13.40
2022-10-29T23:58:21.440Z,13.40
